Time;durP1;ratioP1;P1;durP2;ratioP2;P2;SDS_P1;SDS_P2;PMS_P1;PMS_P2;Temp;Humidity;BMP_temperature;BMP_pressure;BME280_temperature;BME280_humidity;BME280_pressure;Samples;Min_cycle;Max_cycle;Signal;HPM_P1;HPM_P2
2023/11/09 00:02:10;;;;;;;;;;;;;;;12.30;nan;101002.25;5064671;28;19971;-90
2023/11/09 00:04:37;;;;;;;;;;;;;;;12.27;nan;101008.97;5074033;28;19921;-89
2023/11/09 00:07:03;;;;;;;;;;;;;;;12.22;nan;101003.53;5070966;28;20415;-89
2023/11/09 00:09:28;;;;;;;;;;;;;;;12.22;nan;101003.53;5067448;28;19916;-90
2023/11/09 00:11:53;;;;;;;;;;;;;;;12.23;nan;101015.91;5065164;28;19917;-90
2023/11/09 00:14:19;;;;;;;;;;;;;;;12.24;nan;101009.47;5065530;28;20455;-90
2023/11/09 00:16:46;;;;;;;;;;;;;;;12.23;nan;101002.47;5067921;28;20392;-89
2023/11/09 00:19:12;;;;;;;;;;;;;;;12.22;nan;101010.78;5068987;28;20003;-89
2023/11/09 00:21:38;;;;;;;;;;;;;;;12.23;nan;101005.16;5072645;28;19927;-89
2023/11/09 00:24:04;;;;;;;;;;;;;;;12.23;nan;100998.97;4986772;28;2401630;-89
2023/11/09 00:26:29;;;;;;;;;;;;;;;12.22;nan;101000.84;5064444;28;19982;-89
2023/11/09 00:28:55;;;;;;;;;;;;;;;12.22;nan;100998.16;5071533;28;20011;-89
2023/11/09 00:31:22;;;;;;;;;;;;;;;12.24;nan;100995.22;5068251;28;19948;-90
2023/11/09 00:33:47;;;;;;;;;;;;;;;12.23;nan;100994.41;5070784;28;19955;-89
2023/11/09 00:36:12;;;;;;;;;;;;;;;12.24;nan;100992.53;5066208;28;20488;-90
2023/11/09 00:38:38;;;;;;;;;;;;;;;12.24;nan;100979.09;5070119;28;19916;-89
2023/11/09 00:41:03;;;;;;;;;;;;;;;12.25;nan;100980.72;5069070;28;20050;-89
2023/11/09 00:43:29;;;;;;;;;;;;;;;12.24;nan;100977.22;5071959;28;19964;-89
2023/11/09 00:45:55;;;;;;;;;;;;;;;12.23;nan;100980.16;5068261;28;19924;-90
2023/11/09 00:48:20;;;;;;;;;;;;;;;12.21;nan;100975.06;5069958;28;19916;-90
2023/11/09 00:50:46;;;;;;;;;;;;;;;12.19;nan;100977.16;5066818;28;19924;-89
2023/11/09 00:53:11;;;;;;;;;;;;;;;12.18;nan;100959.41;5069486;28;20030;-90
2023/11/09 00:55:36;;;;;;;;;;;;;;;12.17;nan;100957.78;5068574;28;19920;-90
2023/11/09 00:58:02;;;;;;;;;;;;;;;12.14;nan;100957.50;5068058;28;19916;-90
2023/11/09 01:00:27;;;;;;;;;;;;;;;12.13;nan;100956.69;5069248;28;19939;-89
2023/11/09 01:02:54;;;;;;;;;;;;;;;12.13;nan;100953.19;5068467;28;19916;-89
2023/11/09 01:05:19;;;;;;;;;;;;;;;12.12;nan;100954.25;5066987;28;19924;-89
2023/11/09 01:07:44;;;;;;;;;;;;;;;12.10;nan;100944.59;5069108;28;19916;-90
2023/11/09 01:10:10;;;;;;;;;;;;;;;12.10;nan;100938.41;5070974;28;19916;-89
2023/11/09 01:12:35;;;;;;;;;;;;;;;12.10;nan;100936.53;5067890;28;20273;-88
2023/11/09 01:15:04;;;;;;;;;;;;;;;12.10;nan;100936.53;5071660;28;20011;-90
2023/11/09 01:17:29;;;;;;;;;;;;;;;12.14;nan;100930.63;5068335;28;19916;-90
2023/11/09 01:19:54;;;;;;;;;;;;;;;12.13;nan;100923.66;5065899;28;20438;-90
2023/11/09 01:22:20;;;;;;;;;;;;;;;12.04;nan;100923.31;5065376;28;19924;-90
2023/11/09 01:24:45;;;;;;;;;;;;;;;12.03;nan;100925.19;5071840;28;19925;-89
2023/11/09 01:27:11;;;;;;;;;;;;;;;12.04;nan;100915.25;5071204;28;19924;-90
2023/11/09 01:29:36;;;;;;;;;;;;;;;12.05;nan;100911.50;5069809;28;20046;-89
2023/11/09 01:32:01;;;;;;;;;;;;;;;12.06;nan;100907.75;5070159;28;19924;-89
2023/11/09 01:34:27;;;;;;;;;;;;;;;12.06;nan;100905.06;5067561;28;20487;-89
2023/11/09 01:36:55;;;;;;;;;;;;;;;12.05;nan;100904.25;5067421;28;19923;-88
2023/11/09 01:39:23;;;;;;;;;;;;;;;12.03;nan;100897.53;5066502;28;20035;-90
2023/11/09 01:41:49;;;;;;;;;;;;;;;12.02;nan;100894.00;5058586;28;20396;-89
2023/11/09 01:44:15;;;;;;;;;;;;;;;12.03;nan;100897.53;5069826;28;19930;-89
2023/11/09 01:46:42;;;;;;;;;;;;;;;12.03;nan;100889.47;5073349;28;19921;-90
2023/11/09 01:49:08;;;;;;;;;;;;;;;12.03;nan;100884.91;5065516;28;19962;-90
2023/11/09 01:51:33;;;;;;;;;;;;;;;11.99;nan;100888.31;5067994;28;20321;-89
2023/11/09 01:53:59;;;;;;;;;;;;;;;11.98;nan;100884.81;5070175;28;19967;-88
2023/11/09 01:56:24;;;;;;;;;;;;;;;11.98;nan;100884.81;5064462;28;19917;-89
2023/11/09 01:58:50;;;;;;;;;;;;;;;12.01;nan;100880.81;5064575;28;19916;-90
2023/11/09 02:01:16;;;;;;;;;;;;;;;12.03;nan;100871.47;5069356;28;19924;-90
2023/11/09 02:03:42;;;;;;;;;;;;;;;12.06;nan;100862.91;5069350;28;19917;-90
2023/11/09 02:06:09;;;;;;;;;;;;;;;12.07;nan;100869.09;5069797;28;19950;-89
2023/11/09 02:08:35;;;;;;;;;;;;;;;12.04;nan;100856.97;5066899;28;19963;-89
2023/11/09 02:11:00;;;;;;;;;;;;;;;12.05;nan;100857.78;5066467;28;19923;-89
2023/11/09 02:13:26;;;;;;;;;;;;;;;12.07;nan;100861.84;5069609;28;19920;-89
2023/11/09 02:15:52;;;;;;;;;;;;;;;12.10;nan;100864.00;5063463;28;19924;-89
2023/11/09 02:18:18;;;;;;;;;;;;;;;12.17;nan;100865.66;5068589;28;19956;-90
2023/11/09 02:20:45;;;;;;;;;;;;;;;12.16;nan;100858.66;5065705;28;19978;-89
2023/11/09 02:23:11;;;;;;;;;;;;;;;12.14;nan;100856.25;5068009;28;19935;-90
2023/11/09 02:25:39;;;;;;;;;;;;;;;12.09;nan;100850.84;5063986;28;19938;-90
2023/11/09 02:28:07;;;;;;;;;;;;;;;12.06;nan;100852.16;5067493;28;20535;-89
2023/11/09 02:30:32;;;;;;;;;;;;;;;12.03;nan;100857.25;5055994;28;19916;-89
2023/11/09 02:32:57;;;;;;;;;;;;;;;12.03;nan;100851.88;5065450;28;19924;-89
2023/11/09 02:35:23;;;;;;;;;;;;;;;12.04;nan;100846.25;5070318;28;19916;-89
2023/11/09 02:37:48;;;;;;;;;;;;;;;12.04;nan;100835.50;5068875;28;20005;-89
2023/11/09 02:40:13;;;;;;;;;;;;;;;12.07;nan;100839.53;5062745;28;19938;-89
2023/11/09 02:42:39;;;;;;;;;;;;;;;12.04;nan;100827.44;5064820;28;19967;-88
2023/11/09 02:45:04;;;;;;;;;;;;;;;12.06;nan;100827.19;5066151;28;20583;-89
2023/11/09 02:47:29;;;;;;;;;;;;;;;12.05;nan;100822.88;5069822;28;19966;-89
2023/11/09 02:49:55;;;;;;;;;;;;;;;12.03;nan;100815.09;5062789;28;19917;-89
2023/11/09 02:52:20;;;;;;;;;;;;;;;12.03;nan;100812.41;5061782;28;20292;-89
2023/11/09 02:54:45;;;;;;;;;;;;;;;12.03;nan;100811.59;5062396;28;19921;-90
2023/11/09 02:57:11;;;;;;;;;;;;;;;12.02;nan;100812.63;5060590;28;19916;-89
2023/11/09 02:59:37;;;;;;;;;;;;;;;12.01;nan;100814.50;5064206;28;19957;-89
2023/11/09 03:02:02;;;;;;;;;;;;;;;12.02;nan;100810.75;5069675;28;19919;-89
2023/11/09 03:04:28;;;;;;;;;;;;;;;12.02;nan;100809.94;5063286;28;19924;-89
2023/11/09 03:06:53;;;;;;;;;;;;;;;12.01;nan;100809.13;5062086;28;19951;-90
2023/11/09 03:09:19;;;;;;;;;;;;;;;11.96;nan;100810.97;5065651;28;19917;-90
2023/11/09 03:11:44;;;;;;;;;;;;;;;11.90;nan;100807.44;5070801;28;19924;-90
2023/11/09 03:14:10;;;;;;;;;;;;;;;11.88;nan;100800.72;5070031;28;19977;-90
2023/11/09 03:16:35;;;;;;;;;;;;;;;11.87;nan;100791.84;5061473;28;20074;-90
2023/11/09 03:19:01;;;;;;;;;;;;;;;11.80;nan;100797.41;5069789;28;20050;-89
2023/11/09 03:21:27;;;;;;;;;;;;;;;11.87;nan;100791.03;5066505;28;19938;-89
2023/11/09 03:23:52;;;;;;;;;;;;;;;11.83;nan;100796.06;5070276;28;19924;-90
2023/11/09 03:26:17;;;;;;;;;;;;;;;11.88;nan;100789.97;5065843;28;19924;-88
2023/11/09 03:28:43;;;;;;;;;;;;;;;11.88;nan;100789.97;5065155;28;19928;-90
2023/11/09 03:31:10;;;;;;;;;;;;;;;11.87;nan;100786.47;5076890;28;19970;-90
2023/11/09 03:33:36;;;;;;;;;;;;;;;11.88;nan;100772.00;5070875;28;19978;-90
2023/11/09 03:36:01;;;;;;;;;;;;;;;11.92;nan;100772.28;5073305;28;19967;-89
2023/11/09 03:38:27;;;;;;;;;;;;;;;11.92;nan;100765.03;5068423;28;19920;-89
2023/11/09 03:40:52;;;;;;;;;;;;;;;11.92;nan;100765.03;5070100;28;19917;-89
2023/11/09 03:43:17;;;;;;;;;;;;;;;11.92;nan;100764.22;5067766;28;19916;-89
2023/11/09 03:45:43;;;;;;;;;;;;;;;11.88;nan;100755.06;5072489;28;19920;-89
2023/11/09 03:48:08;;;;;;;;;;;;;;;11.89;nan;100737.88;5065350;28;19924;-89
2023/11/09 03:50:33;;;;;;;;;;;;;;;11.94;nan;100748.66;5072172;28;19951;-90
2023/11/09 03:52:59;;;;;;;;;;;;;;;11.93;nan;100739.81;5067610;28;19927;-90
2023/11/09 03:55:24;;;;;;;;;;;;;;;11.91;nan;100743.81;5074004;28;19916;-90
2023/11/09 03:57:49;;;;;;;;;;;;;;;11.87;nan;100742.72;5069298;28;19930;-88
2023/11/09 04:00:17;;;;;;;;;;;;;;;11.89;nan;100740.56;5069441;28;20368;-89
2023/11/09 04:02:42;;;;;;;;;;;;;;;11.92;nan;100737.38;5073071;28;20046;-90
2023/11/09 04:05:11;;;;;;;;;;;;;;;11.92;nan;100740.88;5069401;28;19999;-89
2023/11/09 04:07:46;;;;;;;;;;;;;;;11.91;nan;100733.06;5065776;28;19916;-89
2023/11/09 04:10:16;;;;;;;;;;;;;;;11.93;nan;100741.69;5068109;28;19917;-89
2023/11/09 04:12:44;;;;;;;;;;;;;;;11.89;nan;100730.66;5070001;28;19916;-90
2023/11/09 04:15:10;;;;;;;;;;;;;;;11.88;nan;100729.03;5070332;28;20013;-90
2023/11/09 04:17:36;;;;;;;;;;;;;;;11.90;nan;100732.25;5066206;28;19979;-88
2023/11/09 04:20:02;;;;;;;;;;;;;;;11.94;nan;100722.63;5075336;28;19946;-90
2023/11/09 04:22:27;;;;;;;;;;;;;;;11.96;nan;100714.31;5066783;28;20606;-89
2023/11/09 04:24:53;;;;;;;;;;;;;;;11.98;nan;100712.16;5069267;28;19916;-90
2023/11/09 04:27:18;;;;;;;;;;;;;;;12.01;nan;100708.97;5069891;28;20368;-90
2023/11/09 04:29:43;;;;;;;;;;;;;;;12.05;nan;100712.78;5066177;28;19924;-90
2023/11/09 04:32:09;;;;;;;;;;;;;;;12.00;nan;100710.03;5068888;28;19916;-90
2023/11/09 04:34:35;;;;;;;;;;;;;;;12.00;nan;100704.66;5069515;28;19940;-90
2023/11/09 04:37:01;;;;;;;;;;;;;;;11.98;nan;100702.25;5071537;28;19985;-90
2023/11/09 04:39:29;;;;;;;;;;;;;;;11.99;nan;100708.41;5068714;28;19916;-90
2023/11/09 04:41:58;;;;;;;;;;;;;;;12.00;nan;100694.72;5070051;28;20090;-89
2023/11/09 04:44:24;;;;;;;;;;;;;;;12.02;nan;100689.09;5068649;28;19917;-89
2023/11/09 04:46:52;;;;;;;;;;;;;;;12.06;nan;100691.03;5073377;28;20829;-90
2023/11/09 04:49:19;;;;;;;;;;;;;;;12.06;nan;100690.22;5068271;28;19916;-89
2023/11/09 04:51:46;;;;;;;;;;;;;;;12.05;nan;100685.91;5067880;28;19985;-89
2023/11/09 04:54:19;;;;;;;;;;;;;;;12.02;nan;100687.22;5069210;28;20368;-90
2023/11/09 05:07:21;;;;;;;;;;;;;;;12.01;nan;100674.06;5069460;28;19941;-89
2023/11/09 05:09:47;;;;;;;;;;;;;;;12.00;nan;100662.50;5069841;28;20011;-89
2023/11/09 05:12:15;;;;;;;;;;;;;;;12.01;nan;100657.94;5064747;28;20383;-89
2023/11/09 05:14:41;;;;;;;;;;;;;;;11.95;nan;100659.78;5072911;28;19924;-90
2023/11/09 05:17:06;;;;;;;;;;;;;;;11.95;nan;100659.00;5074069;28;20022;-89
2023/11/09 05:19:31;;;;;;;;;;;;;;;11.99;nan;100657.41;5067724;28;19928;-89
2023/11/09 05:21:57;;;;;;;;;;;;;;;11.99;nan;100655.53;5064923;28;19917;-90
2023/11/09 05:24:22;;;;;;;;;;;;;;;11.93;nan;100647.69;5067636;28;19970;-90
2023/11/09 05:26:50;;;;;;;;;;;;;;;11.90;nan;100640.97;5064381;28;19948;-89
2023/11/09 05:29:16;;;;;;;;;;;;;;;11.92;nan;100644.22;5067699;28;19916;-89
2023/11/09 05:31:44;;;;;;;;;;;;;;;11.94;nan;100636.69;5069156;28;19916;-89
2023/11/09 05:34:10;;;;;;;;;;;;;;;12.00;nan;100637.53;5068564;28;20141;-89
2023/11/09 05:36:35;;;;;;;;;;;;;;;12.04;nan;100633.28;5066808;28;19916;-89
2023/11/09 05:39:01;;;;;;;;;;;;;;;12.07;nan;100624.69;5066581;28;19923;-90
2023/11/09 05:41:27;;;;;;;;;;;;;;;12.09;nan;100625.25;5065798;28;20023;-89
2023/11/09 05:43:52;;;;;;;;;;;;;;;12.08;nan;100631.69;5065286;28;19970;-89
2023/11/09 05:46:19;;;;;;;;;;;;;;;12.08;nan;100621.75;5069323;28;19921;-90
2023/11/09 05:48:44;;;;;;;;;;;;;;;12.11;nan;100609.69;5060199;28;20498;-90
2023/11/09 05:51:10;;;;;;;;;;;;;;;12.10;nan;100608.88;5062331;28;19976;-90
2023/11/09 05:53:35;;;;;;;;;;;;;;;12.09;nan;100609.94;5067747;28;19965;-89
2023/11/09 05:56:01;;;;;;;;;;;;;;;12.10;nan;100613.44;5064506;28;19964;-89
2023/11/09 05:58:26;;;;;;;;;;;;;;;12.12;nan;100611.28;5067018;28;19925;-90
2023/11/09 06:00:52;;;;;;;;;;;;;;;12.15;nan;100605.38;5062249;28;20300;-89
2023/11/09 06:03:17;;;;;;;;;;;;;;;12.17;nan;100605.94;5067467;28;19916;-90
2023/11/09 06:05:42;;;;;;;;;;;;;;;12.22;nan;100599.81;5069809;28;19920;-90
2023/11/09 06:08:10;;;;;;;;;;;;;;;12.25;nan;100599.28;5067355;28;19924;-89
2023/11/09 06:10:36;;;;;;;;;;;;;;;12.25;nan;100602.75;5067250;28;19954;-90
2023/11/09 06:13:01;;;;;;;;;;;;;;;12.26;nan;100601.69;5067335;28;19917;-89
2023/11/09 06:15:26;;;;;;;;;;;;;;;12.27;nan;100597.13;5070007;28;19924;-90
2023/11/09 06:17:52;;;;;;;;;;;;;;;12.26;nan;100599.00;5061502;28;19917;-90
2023/11/09 06:20:20;;;;;;;;;;;;;;;12.26;nan;100596.31;5069297;28;19955;-90
2023/11/09 06:22:45;;;;;;;;;;;;;;;12.24;nan;100594.97;5068133;28;20035;-89
2023/11/09 06:25:11;;;;;;;;;;;;;;;12.28;nan;100599.53;5066590;28;19999;-90
2023/11/09 06:27:37;;;;;;;;;;;;;;;12.33;nan;100604.13;5067489;28;19916;-90
2023/11/09 06:30:04;;;;;;;;;;;;;;;12.39;nan;100606.59;5066183;28;19916;-90
2023/11/09 06:32:30;;;;;;;;;;;;;;;12.43;nan;100614.91;5062959;28;19924;-90
2023/11/09 06:34:55;;;;;;;;;;;;;;;12.44;nan;100611.16;5066070;28;19920;-89
2023/11/09 06:37:21;;;;;;;;;;;;;;;12.51;nan;100608.22;5069053;28;20335;-89
2023/11/09 06:39:49;;;;;;;;;;;;;;;12.48;nan;100614.13;5061732;28;19924;-90
2023/11/09 06:42:15;;;;;;;;;;;;;;;12.47;nan;100605.25;5067150;28;19917;-89
2023/11/09 06:44:43;;;;;;;;;;;;;;;12.45;nan;100591.28;5064580;28;20402;-88
2023/11/09 06:47:10;;;;;;;;;;;;;;;12.48;nan;100598.00;5067731;28;20035;-88
2023/11/09 06:49:35;;;;;;;;;;;;;;;12.47;nan;100593.69;5067693;28;19927;-89
2023/11/09 06:52:01;;;;;;;;;;;;;;;12.46;nan;100595.56;5066547;28;19916;-89
2023/11/09 06:54:27;;;;;;;;;;;;;;;12.49;nan;100597.72;5066932;28;19920;-89
2023/11/09 06:56:52;;;;;;;;;;;;;;;12.53;nan;100589.94;5066991;28;19923;-89
2023/11/09 06:59:17;;;;;;;;;;;;;;;12.56;nan;100578.66;5070066;28;20377;-88
2023/11/09 07:01:43;;;;;;;;;;;;;;;12.58;nan;100587.28;5067205;28;19959;-90
2023/11/09 07:04:08;;;;;;;;;;;;;;;12.60;nan;100579.78;5066872;28;19916;-89
2023/11/09 07:06:34;;;;;;;;;;;;;;;12.65;nan;100587.84;5064011;28;19916;-90
2023/11/09 07:08:59;;;;;;;;;;;;;;;12.66;nan;100584.06;5070079;28;19965;-88
2023/11/09 07:11:24;;;;;;;;;;;;;;;12.64;nan;100594.28;5074442;28;19924;-88
2023/11/09 07:13:50;;;;;;;;;;;;;;;12.63;nan;100584.59;5065544;28;19986;-89
2023/11/09 07:16:16;;;;;;;;;;;;;;;12.62;nan;100580.31;5065863;28;20900;-89
2023/11/09 07:18:43;;;;;;;;;;;;;;;12.66;nan;100581.38;5067933;28;20427;-89
2023/11/09 07:21:09;;;;;;;;;;;;;;;12.68;nan;100587.31;5067850;28;19923;-89
2023/11/09 07:23:35;;;;;;;;;;;;;;;12.73;nan;100592.69;5066846;28;19916;-89
2023/11/09 07:26:00;;;;;;;;;;;;;;;12.78;nan;100584.66;5065843;28;19920;-89
2023/11/09 07:28:28;;;;;;;;;;;;;;;12.81;nan;100586.00;5065330;28;20645;-90
2023/11/09 07:30:54;;;;;;;;;;;;;;;12.85;nan;100579.00;5069354;28;19917;-87
2023/11/09 07:33:21;;;;;;;;;;;;;;;12.88;nan;100581.16;5070079;28;19927;-88
2023/11/09 07:35:46;;;;;;;;;;;;;;;12.94;nan;100580.91;5069307;28;20486;-90
2023/11/09 07:38:14;;;;;;;;;;;;;;;12.99;nan;100577.41;5070860;28;19943;-89
2023/11/09 07:40:42;;;;;;;;;;;;;;;13.06;nan;100571.75;5067116;28;19931;-88
2023/11/09 07:43:08;;;;;;;;;;;;;;;13.11;nan;100566.41;5068173;28;19920;-88
2023/11/09 07:45:34;;;;;;;;;;;;;;;13.20;nan;100560.22;5071045;28;19920;-89
2023/11/09 07:48:00;;;;;;;;;;;;;;;13.28;nan;100569.63;5071280;28;20006;-89
2023/11/09 07:50:25;;;;;;;;;;;;;;;13.33;nan;100566.94;5068103;28;19920;-89
2023/11/09 07:52:50;;;;;;;;;;;;;;;13.38;nan;100558.88;5073427;28;20345;-90
2023/11/09 07:55:17;;;;;;;;;;;;;;;13.45;nan;100563.97;5068085;28;19974;-89
2023/11/09 07:57:43;;;;;;;;;;;;;;;13.50;nan;100550.50;5067326;28;19920;-88
2023/11/09 08:00:11;;;;;;;;;;;;;;;13.57;nan;100537.56;5070114;28;20391;-89
2023/11/09 08:02:37;;;;;;;;;;;;;;;13.66;nan;100540.53;5071469;28;19916;-89
2023/11/09 08:05:04;;;;;;;;;;;;;;;13.71;nan;100540.50;5070860;28;20407;-89
2023/11/09 08:07:29;;;;;;;;;;;;;;;13.72;nan;100532.16;5070385;28;19923;-88
2023/11/09 08:09:56;;;;;;;;;;;;;;;13.75;nan;100531.59;5068424;28;19920;-88
2023/11/09 08:12:23;;;;;;;;;;;;;;;13.77;nan;100526.75;5071580;28;20003;-87
2023/11/09 08:14:48;;;;;;;;;;;;;;;13.82;nan;100525.91;5070774;28;19985;-86
2023/11/09 08:17:14;;;;;;;;;;;;;;;13.83;nan;100527.53;5066766;28;19948;-88
2023/11/09 08:19:39;;;;;;;;;;;;;;;13.88;nan;100524.81;5069769;28;19920;-87
2023/11/09 08:22:05;;;;;;;;;;;;;;;13.97;nan;100531.25;5063312;28;19921;-88
2023/11/09 08:24:32;;;;;;;;;;;;;;;14.01;nan;100531.53;5063214;28;19920;-89
2023/11/09 08:26:57;;;;;;;;;;;;;;;14.05;nan;100519.91;5062025;28;20110;-88
2023/11/09 08:29:24;;;;;;;;;;;;;;;14.12;nan;100519.59;5070136;28;19920;-90
2023/11/09 08:31:49;;;;;;;;;;;;;;;14.19;nan;100520.13;5066230;28;19917;-88
2023/11/09 08:34:16;;;;;;;;;;;;;;;14.26;nan;100519.81;5071136;28;19926;-90
2023/11/09 08:36:41;;;;;;;;;;;;;;;14.32;nan;100506.00;5069166;28;19931;-88
2023/11/09 08:39:09;;;;;;;;;;;;;;;14.41;nan;100512.44;5071961;28;19916;-87
2023/11/09 08:41:35;;;;;;;;;;;;;;;14.58;nan;100511.28;5062958;28;20219;-88
2023/11/09 08:44:00;;;;;;;;;;;;;;;14.70;nan;100514.44;5065130;28;20421;-89
2023/11/09 08:46:25;;;;;;;;;;;;;;;14.76;nan;100508.72;5067142;28;19966;-88
2023/11/09 08:48:50;;;;;;;;;;;;;;;14.80;nan;100508.97;5067865;28;19962;-87
2023/11/09 08:51:16;;;;;;;;;;;;;;;14.89;nan;100501.88;5071350;28;19927;-88
2023/11/09 08:53:41;;;;;;;;;;;;;;;14.96;nan;100509.66;5064179;28;19928;-88
2023/11/09 08:56:07;;;;;;;;;;;;;;;14.96;nan;100507.75;5068447;28;20740;-88
2023/11/09 08:58:37;;;;;;;;;;;;;;;14.98;nan;100500.19;5068855;28;19916;-89
2023/11/09 09:01:04;;;;;;;;;;;;;;;14.99;nan;100509.09;5081572;28;19942;-88
2023/11/09 09:03:32;;;;;;;;;;;;;;;15.07;nan;100508.47;5066084;28;19943;-87
2023/11/09 09:05:58;;;;;;;;;;;;;;;15.08;nan;100510.06;5068241;28;19920;-89
2023/11/09 09:08:26;;;;;;;;;;;;;;;15.10;nan;100511.41;5069618;28;20090;-88
2023/11/09 09:10:55;;;;;;;;;;;;;;;15.22;nan;100505.63;5067095;28;19939;-89
2023/11/09 09:13:23;;;;;;;;;;;;;;;15.29;nan;100503.41;5066991;28;20019;-88
2023/11/09 09:15:48;;;;;;;;;;;;;;;15.36;nan;100509.28;5067781;28;19917;-88
2023/11/09 09:18:14;;;;;;;;;;;;;;;15.43;nan;100507.03;5067476;28;19921;-89
2023/11/09 09:20:40;;;;;;;;;;;;;;;15.53;nan;100505.31;5067791;28;19920;-88
2023/11/09 09:23:07;;;;;;;;;;;;;;;15.66;nan;100510.06;5063983;28;19917;-88
2023/11/09 09:25:33;;;;;;;;;;;;;;;15.74;nan;100506.72;5067098;28;19920;-88
2023/11/09 09:28:01;;;;;;;;;;;;;;;15.71;nan;100505.41;5063675;28;20657;-88
2023/11/09 09:30:27;;;;;;;;;;;;;;;15.77;nan;100503.44;5066567;28;19921;-88
2023/11/09 09:32:53;;;;;;;;;;;;;;;15.76;nan;100507.25;5064308;28;19924;-88
2023/11/09 09:35:24;;;;;;;;;;;;;;;15.80;nan;100505.59;5070992;28;19920;-87
2023/11/09 09:37:50;;;;;;;;;;;;;;;15.79;nan;100503.97;5069701;28;19923;-88
2023/11/09 09:40:17;;;;;;;;;;;;;;;15.83;nan;100496.09;5069792;28;19916;-88
2023/11/09 09:42:45;;;;;;;;;;;;;;;15.93;nan;100499.47;5064085;28;19978;-88
2023/11/09 09:45:13;;;;;;;;;;;;;;;15.97;nan;100505.91;5060620;28;20358;-88
2023/11/09 09:47:42;;;;;;;;;;;;;;;16.03;nan;100498.56;5062625;28;19916;-89
2023/11/09 09:50:09;;;;;;;;;;;;;;;16.02;nan;100492.34;5062500;28;20012;-88
2023/11/09 09:52:38;;;;;;;;;;;;;;;16.11;nan;100499.78;5063508;28;19932;-88
2023/11/09 09:55:05;;;;;;;;;;;;;;;16.13;nan;100503.00;5061566;28;19924;-89
2023/11/09 09:57:31;;;;;;;;;;;;;;;16.10;nan;100485.47;5067699;28;19963;-86
2023/11/09 09:59:58;;;;;;;;;;;;;;;16.14;nan;100485.69;5065260;28;19968;-88
2023/11/09 10:02:24;;;;;;;;;;;;;;;16.14;nan;100483.00;5066400;28;19927;-88
2023/11/09 10:04:51;;;;;;;;;;;;;;;16.15;nan;100476.47;5066106;28;19988;-88
2023/11/09 10:07:16;;;;;;;;;;;;;;;16.18;nan;100475.94;5063134;28;19958;-88
2023/11/09 10:09:41;;;;;;;;;;;;;;;16.24;nan;100472.03;5063617;28;19967;-88
2023/11/09 10:12:09;;;;;;;;;;;;;;;16.34;nan;100466.50;5068806;28;20133;-89
2023/11/09 10:14:34;;;;;;;;;;;;;;;16.42;nan;100473.94;5066550;28;19921;-88
2023/11/09 10:17:00;;;;;;;;;;;;;;;16.45;nan;100461.72;5059372;28;19927;-88
2023/11/09 10:19:25;;;;;;;;;;;;;;;16.45;nan;100457.13;5065984;28;19924;-88
2023/11/09 10:21:51;;;;;;;;;;;;;;;16.56;nan;100466.69;5067080;28;19917;-88
2023/11/09 10:24:16;;;;;;;;;;;;;;;16.62;nan;100457.41;5066532;28;19920;-86
2023/11/09 10:26:44;;;;;;;;;;;;;;;16.66;nan;100456.78;5066354;28;20402;-88
2023/11/09 10:29:14;;;;;;;;;;;;;;;16.66;nan;100457.59;5068040;28;20383;-88
2023/11/09 10:31:42;;;;;;;;;;;;;;;16.68;nan;100460.03;5071482;28;19956;-89
2023/11/09 10:34:11;;;;;;;;;;;;;;;16.72;nan;100440.25;5064585;28;20055;-88
2023/11/09 10:36:37;;;;;;;;;;;;;;;16.79;nan;100440.66;5069889;28;19916;-87
2023/11/09 10:39:14;;;;;;;;;;;;;;;16.80;nan;100430.63;5069771;28;20010;-88
2023/11/09 10:41:40;;;;;;;;;;;;;;;16.86;nan;100435.66;5064083;28;19916;-89
2023/11/09 10:44:06;;;;;;;;;;;;;;;16.87;nan;100444.56;5071341;28;20296;-88
2023/11/09 10:46:33;;;;;;;;;;;;;;;16.90;nan;100436.69;5067057;28;19920;-90
2023/11/09 10:48:59;;;;;;;;;;;;;;;16.93;nan;100435.28;5070786;28;19925;-87
2023/11/09 10:51:25;;;;;;;;;;;;;;;16.97;nan;100439.00;5067468;28;19925;-87
2023/11/09 10:53:56;;;;;;;;;;;;;;;17.01;nan;100431.06;5066790;28;20396;-88
2023/11/09 10:56:26;;;;;;;;;;;;;;;16.98;nan;100434.38;5069559;28;19916;-89
2023/11/09 10:58:56;;;;;;;;;;;;;;;17.00;nan;100424.06;5066061;28;19924;-88
2023/11/09 11:01:23;;;;;;;;;;;;;;;16.97;nan;100422.75;5070560;28;19916;-89
2023/11/09 11:03:52;;;;;;;;;;;;;;;17.01;nan;100429.16;5071664;28;19916;-87
2023/11/09 11:06:29;;;;;;;;;;;;;;;17.01;nan;100415.63;5065616;28;19917;-88
2023/11/09 11:08:56;;;;;;;;;;;;;;;17.07;nan;100419.88;5068583;28;20019;-88
2023/11/09 11:11:28;;;;;;;;;;;;;;;17.11;nan;100407.34;5064100;28;19921;-88
2023/11/09 11:13:58;;;;;;;;;;;;;;;17.22;nan;100418.75;5067878;28;19921;-88
2023/11/09 11:16:26;;;;;;;;;;;;;;;17.19;nan;100412.03;5065727;28;19924;-89
2023/11/09 11:19:11;;;;;;;;;;;;;;;17.24;nan;100404.94;5065180;28;20020;-89
2023/11/09 11:21:57;;;;;;;;;;;;;;;17.35;nan;100392.78;5067705;28;20007;-89
2023/11/09 11:24:41;;;;;;;;;;;;;;;17.47;nan;100401.22;5067490;28;20410;-88
2023/11/09 11:27:16;;;;;;;;;;;;;;;17.49;nan;100399.81;5065554;28;20416;-89
2023/11/09 11:29:45;;;;;;;;;;;;;;;17.49;nan;100405.22;5064589;28;20483;-88
2023/11/09 11:32:16;;;;;;;;;;;;;;;17.55;nan;100408.63;5069683;28;19924;-88
2023/11/09 11:34:55;;;;;;;;;;;;;;;17.53;nan;100408.13;5063383;28;19929;-86
2023/11/09 11:37:24;;;;;;;;;;;;;;;17.49;nan;100405.22;5064019;28;20606;-88
2023/11/09 11:39:50;;;;;;;;;;;;;;;17.44;nan;100412.66;5069399;28;19926;-87
2023/11/09 11:42:16;;;;;;;;;;;;;;;17.40;nan;100406.22;5067990;28;19916;-88
2023/11/09 11:44:52;;;;;;;;;;;;;;;17.35;nan;100411.75;5070945;28;19936;-88
2023/11/09 11:47:20;;;;;;;;;;;;;;;17.39;nan;100412.75;5067434;28;19916;-88
2023/11/09 11:49:46;;;;;;;;;;;;;;;17.40;nan;100408.94;5067171;28;19921;-88
2023/11/09 11:52:11;;;;;;;;;;;;;;;17.39;nan;100418.16;5062991;28;20328;-88
2023/11/09 11:54:41;;;;;;;;;;;;;;;17.38;nan;100392.97;5068418;28;19968;-88
2023/11/09 11:57:06;;;;;;;;;;;;;;;17.41;nan;100399.69;5067436;28;20388;-88
2023/11/09 11:59:35;;;;;;;;;;;;;;;17.43;nan;100392.91;5066178;28;19955;-88
2023/11/09 12:02:00;;;;;;;;;;;;;;;17.43;nan;100390.19;5068073;28;19931;-88
2023/11/09 12:04:26;;;;;;;;;;;;;;;17.44;nan;100380.97;5066257;28;19920;-87
2023/11/09 12:06:53;;;;;;;;;;;;;;;17.48;nan;100381.16;5069420;28;19916;-88
2023/11/09 12:09:20;;;;;;;;;;;;;;;17.42;nan;100379.66;5064231;28;19921;-88
2023/11/09 12:11:46;;;;;;;;;;;;;;;17.43;nan;100383.97;5069251;28;20387;-89
2023/11/09 12:14:12;;;;;;;;;;;;;;;17.46;nan;100380.66;5067942;28;19920;-88
2023/11/09 12:16:41;;;;;;;;;;;;;;;17.50;nan;100382.44;5064374;28;20372;-89
2023/11/09 12:19:11;;;;;;;;;;;;;;;17.62;nan;100386.56;5064858;28;19920;-87
2023/11/09 12:21:37;;;;;;;;;;;;;;;17.64;nan;100381.63;5067348;28;20398;-88
2023/11/09 12:24:03;;;;;;;;;;;;;;;17.64;nan;100376.22;5065915;28;19940;-88
2023/11/09 12:26:32;;;;;;;;;;;;;;;17.63;nan;100382.75;5071223;28;19916;-86
2023/11/09 12:28:59;;;;;;;;;;;;;;;17.57;nan;100382.03;5066502;28;19916;-89
2023/11/09 12:31:25;;;;;;;;;;;;;;;17.51;nan;100380.53;5069461;28;20698;-88
2023/11/09 12:34:05;;;;;;;;;;;;;;;17.50;nan;100387.88;5061009;28;19924;-87
2023/11/09 12:36:33;;;;;;;;;;;;;;;17.54;nan;100390.78;5068718;28;19959;-87
2023/11/09 12:38:59;;;;;;;;;;;;;;;17.58;nan;100389.06;5066895;28;19968;-89
2023/11/09 12:41:24;;;;;;;;;;;;;;;17.63;nan;100374.63;5070252;28;21719;-87
2023/11/09 12:43:50;;;;;;;;;;;;;;;17.67;nan;100375.59;5067596;28;19920;-89
2023/11/09 12:46:17;;;;;;;;;;;;;;;17.70;nan;100375.03;5067140;28;19916;-87
2023/11/09 12:48:46;;;;;;;;;;;;;;;17.69;nan;100373.41;5061136;28;20455;-88
2023/11/09 12:51:13;;;;;;;;;;;;;;;17.69;nan;100368.81;5061125;28;19951;-86
2023/11/09 12:53:44;;;;;;;;;;;;;;;17.71;nan;100374.72;5062903;28;19925;-87
2023/11/09 12:56:13;;;;;;;;;;;;;;;17.69;nan;100371.50;5067262;28;19921;-87
2023/11/09 12:58:41;;;;;;;;;;;;;;;17.68;nan;100380.75;5065253;28;19995;-89
2023/11/09 13:01:13;;;;;;;;;;;;;;;17.63;nan;100390.88;5061909;28;20403;-87
2023/11/09 13:03:39;;;;;;;;;;;;;;;17.55;nan;100386.94;5066354;28;19954;-88
2023/11/09 13:06:09;;;;;;;;;;;;;;;17.52;nan;100387.56;5071151;28;19916;-88